ADDS METAR Data INFO
IDs: Format: Raw Decoded Include TAF

Data at: 1746 UTC 21 Oct 2017

KFET 211735Z AUTO 18014G20KT 10SM SCT028 BKN039 OVC055 22/16 A2965 RMK AO2 T02220164
KFET 211715Z AUTO 18012G21KT 10SM BKN032 OVC037 22/16 A2965 RMK AO2 T02230164
KFET 211655Z AUTO 18013G20KT 10SM BKN028 OVC034 22/16 A2964 RMK AO2 T02220162
KFET 211635Z AUTO 18012G19KT 10SM OVC026 22/16 A2964 RMK AO2 T02200163
KFET 211615Z AUTO 18015G25KT 10SM BKN026 OVC031 22/16 A2963 RMK AO2 T02200163
KFET 211555Z AUTO 17017G22KT 10SM OVC026 22/16 A2963 RMK AO2 T02190164
KFET 211535Z AUTO 17018G23KT 10SM BKN026 22/16 A2962 RMK AO2 T02220163
KFET 211515Z AUTO 17015G29KT 10SM CLR 22/17 A2962 RMK AO2 T02210165
KFET 211455Z AUTO 17021G27KT 10SM CLR 22/16 A2961 RMK AO2 T02170163
KFET 211435Z AUTO 17020G26KT 10SM SCT044 22/16 A2960 RMK AO2 T02150163
KFET 211415Z AUTO 16015G23KT 10SM SCT024 OVC044 21/16 A2960 RMK AO2 T02100162
KFET 211355Z AUTO 16016G21KT 10SM SCT024 BKN034 OVC042 21/16 A2961 RMK AO2 T02080162
KFET 211335Z AUTO 16015G23KT 10SM BKN024 BKN034 OVC040 21/16 A2960 RMK AO2 T02070161
KFET 211315Z AUTO 17016G21KT 10SM BKN024 BKN031 OVC038 21/16 A2961 RMK AO2 LTG DSNT NE T02070161
KFET 211255Z AUTO 17018G24KT 10SM BKN024 OVC038 21/16 A2958 RMK AO2 T02060160
KFET 211235Z AUTO 17016G21KT 10SM BKN024 OVC038 21/16 A2959 RMK AO2 T02060161
KFET 211215Z AUTO 16016G26KT 10SM BKN024 OVC036 21/16 A2960 RMK AO2 T02070160
KFET 211155Z AUTO 16014G24KT 10SM OVC024 21/16 A2958 RMK AO2 7//// T02060160 10207 20190
KFET 211135Z AUTO 16016G23KT 10SM OVC024 21/16 A2958 RMK AO2 LTG DSNT NE T02070160
KFET 211115Z AUTO 16017G23KT 10SM OVC024 21/16 A2958 RMK AO2 T02060160
KFET 211055Z AUTO 16014G19KT 10SM OVC024 21/16 A2958 RMK AO2 T02050160
KFET 211035Z AUTO 16016G21KT 10SM OVC024 21/16 A2958 RMK AO2 LTG DSNT E T02050160
KFET 211015Z AUTO 16013G19KT 10SM OVC024 20/16 A2958 RMK AO2 LTG DSNT E T02030158
KFET 210955Z AUTO 15015G20KT 10SM OVC024 20/16 A2958 RMK AO2 LTG DSNT SE T02020156
KFET 210935Z AUTO 16017G23KT 10SM OVC026 20/16 A2958 RMK AO2 T02020155
KFET 210915Z AUTO 17013G19KT 10SM OVC026 20/16 A2958 RMK AO2 LTG DSNT NE T02010155
KFET 210855Z AUTO 16016G24KT 10SM OVC028 20/15 A2958 RMK AO2 LTG DSNT NE THRU S T02000152
KFET 210835Z AUTO 16018G25KT 10SM OVC028 20/15 A2959 RMK AO2 T01970152
KFET 210815Z AUTO 16018G24KT 10SM OVC030 20/15 A2960 RMK AO2 LTG DSNT SE T01960151
KFET 210755Z AUTO 15018G25KT 10SM OVC030 20/15 A2960 RMK AO2 LTG DSNT E AND SE T01960148
KFET 210735Z AUTO 15015G22KT 10SM OVC030 20/15 A2961 RMK AO2 LTG DSNT E AND SE T01960145
KFET 210715Z AUTO 15014G22KT 10SM OVC030 20/14 A2962 RMK AO2 LTG DSNT E AND SE T01950143
KFET 210655Z AUTO 15014G21KT 10SM OVC030 19/14 A2962 RMK AO2 LTG DSNT SE T01930142
KFET 210635Z AUTO 15014G20KT 10SM OVC030 19/14 A2963 RMK AO2 LTG DSNT SE T01910141
KFET 210615Z AUTO 15013G21KT 10SM OVC032 19/14 A2964 RMK AO2 LTG DSNT S T01900140
KFET 210555Z AUTO 15018KT 10SM SCT034 BKN060 OVC110 19/14 A2964 RMK AO2 T01900140 10222 20190
KFET 210535Z AUTO 15012G21KT 10SM BKN060 19/14 A2965 RMK AO2 T01900140
KFET 210515Z AUTO 15014G20KT 10SM CLR 19/14 A2967 RMK AO2 T01910137
KFET 210455Z AUTO 15014KT 10SM CLR 19/14 A2968 RMK AO2 T01930137
KFET 210435Z AUTO 15013G20KT 10SM CLR 20/14 A2968 RMK AO2 T01950136
KFET 210415Z AUTO 15012G18KT 10SM CLR 20/14 A2969 RMK AO2 T01960135
KFET 210355Z AUTO 15014G20KT 10SM CLR 20/13 A2969 RMK AO2 T01990133
KFET 210335Z AUTO 15015G22KT 10SM CLR 20/13 A2969 RMK AO2 T01990134
KFET 210315Z AUTO 16014G22KT 10SM CLR 20/14 A2969 RMK AO2 T02000135
KFET 210255Z AUTO 16018G24KT 10SM CLR 20/14 A2969 RMK AO2 T02030135
KFET 210235Z AUTO 15015G24KT 10SM CLR 21/14 A2968 RMK AO2 T02050136
KFET 210215Z AUTO 15014G26KT 10SM SCT070 21/14 A2969 RMK AO2 T02080136
KFET 210155Z AUTO 15018G26KT 10SM CLR 21/14 A2969 RMK AO2 T02100136
KFET 210135Z AUTO 16018G28KT 10SM CLR 21/14 A2968 RMK AO2 T02140135
KFET 210115Z AUTO 15017G24KT 10SM CLR 22/14 A2968 RMK AO2 T02150139
KFET 210055Z AUTO 15014G21KT 10SM CLR 22/14 A2968 RMK AO2 T02150141
KFET 210035Z AUTO 14013G24KT 10SM CLR 22/14 A2967 RMK AO2 T02160142
KFET 210015Z AUTO 15012G21KT 10SM SCT050 22/14 A2967 RMK AO2 T02190143
KFET 202355Z AUTO 15013G23KT 10SM BKN050 22/14 A2967 RMK AO2 T02220143 10251 20222
KFET 202335Z AUTO 14017G23KT 10SM SCT050 23/14 A2967 RMK AO2 T02270142
KFET 202315Z AUTO 15018G26KT 10SM CLR 23/14 A2967 RMK AO2 T02300142
KFET 202255Z AUTO 15015G26KT 10SM SCT047 23/14 A2968 RMK AO2 T02320142
KFET 202235Z AUTO 16018G30KT 10SM SCT047 24/14 A2969 RMK AO2 T02350141
KFET 202220Z AUTO 15019G32KT 10SM SCT049 24/14 A2969 RMK AO2 T02390141
KFET 202155Z AUTO 16018G27KT 10SM SCT049 24/14 A2970 RMK AO2 T02400136
KFET 202135Z AUTO 16021G33KT 10SM BKN049 BKN055 25/14 A2970 RMK AO2 T02470135
KFET 202115Z AUTO 16021G30KT 10SM CLR 25/14 A2970 RMK AO2 T02490141
KFET 202055Z AUTO 16017G24KT 10SM CLR 24/14 A2971 RMK AO2 T02360143
KFET 202035Z AUTO 15017G26KT 10SM CLR 24/14 A2972 RMK AO2 T02350141
KFET 202015Z AUTO 16018G29KT 10SM SCT045 SCT050 24/14 A2972 RMK AO2 T02350140
KFET 201955Z AUTO 15019G27KT 10SM SCT045 25/14 A2973 RMK AO2 T02450138
KFET 201935Z AUTO 15017G28KT 10SM SCT047 25/13 A2974 RMK AO2 T02450134
KFET 201915Z AUTO 16017G26KT 10SM SCT047 25/13 A2975 RMK AO2 T02470132
KFET 201855Z AUTO 16021G26KT 10SM SCT047 25/13 A2976 RMK AO2 T02490132
KFET 201835Z AUTO 19016G24KT 10SM CLR 25/13 A2978 RMK AO2 T02450129
KFET 201815Z AUTO 17013G27KT 10SM CLR 24/13 A2979 RMK AO2 T02390133
KFET 201755Z AUTO 15014G22KT 10SM CLR 24/13 A2981 RMK AO2 6//// T02350134
KFET 201735Z AUTO 17012G21KT 10SM CLR 23/13 A2982 RMK AO2 T02320132
KFET 201715Z AUTO 17013G24KT 10SM 22/13 A2983 RMK AO2 T02210131
KFET 201255Z AUTO 15010G14KT 10SM CLR 13/10 A2991 RMK AO2 T01330104
KFET 201235Z AUTO 15009KT 10SM CLR 13/10 A2992 RMK AO2 T01330103
KFET 201215Z AUTO 15009KT 10SM CLR 14/10 A2992 RMK AO2 T01350103
KFET 201155Z AUTO 15009KT 10SM CLR 14/10 A2993 RMK AO2 T01380103 10175 20137
KFET 201135Z AUTO 16010G15KT 10SM CLR 14/10 A2993 RMK AO2 T01410102
KFET 201115Z AUTO 16009KT 10SM CLR 14/10 A2993 RMK AO2 T01400101
KFET 201055Z AUTO 16009KT 10SM CLR 14/10 A2993 RMK AO2 T01440100
KFET 201035Z AUTO 16009G14KT 10SM CLR 15/10 A2993 RMK AO2 T01450100
KFET 201015Z AUTO 16010G15KT 10SM CLR 15/10 A2993 RMK AO2 T01470099
KFET 200955Z AUTO 16008KT 10SM CLR 15/10 A2994 RMK AO2 T01490097
KFET 200935Z AUTO 16010KT 10SM CLR 16/10 A2994 RMK AO2 T01550097
KFET 200915Z AUTO 17009G14KT 10SM CLR 16/10 A2994 RMK AO2 T01570095
KFET 200855Z AUTO 17008KT 10SM CLR 16/09 A2994 RMK AO2 T01590092
KFET 200835Z AUTO 16008KT 10SM CLR 16/09 A2995 RMK AO2 T01600091
KFET 200815Z AUTO 18010G18KT 10SM CLR 17/09 A2996 RMK AO2 T01650090
KFET 200755Z AUTO 18009KT 10SM CLR 17/09 A2996 RMK AO2 T01670090
KFET 200735Z AUTO 18011G15KT 10SM CLR 17/09 A2996 RMK AO2 T01670088
KFET 200715Z AUTO 17010KT 10SM CLR 17/09 A2996 RMK AO2 T01680086
KFET 200655Z AUTO 17010G15KT 10SM CLR 17/09 A2996 RMK AO2 T01680085
KFET 200635Z AUTO 17008KT 10SM CLR 17/09 A2996 RMK AO2 T01720085
KFET 200615Z AUTO 18009G16KT 10SM CLR 17/08 A2996 RMK AO2 T01720084
KFET 200555Z AUTO 18011G16KT 10SM CLR 18/09 A2996 RMK AO2 T01750085 10208 20173 402560042